sensor_id;sensor_type;location;lat;lon;timestamp;pressure;altitude;pressure_sealevel;temperature;humidity
50650;BME280;36621;60.058;30.346;2022-08-03T00:02:19;101338.50;;;18.73;62.18
50650;BME280;36621;60.058;30.346;2022-08-03T00:09:52;101354.06;;;18.69;62.44
50650;BME280;36621;60.058;30.346;2022-08-03T00:17:23;101346.72;;;18.64;62.68
50650;BME280;36621;60.058;30.346;2022-08-03T00:24:56;101345.53;;;18.56;62.49
50650;BME280;36621;60.058;30.346;2022-08-03T00:32:28;101345.13;;;18.49;62.24
50650;BME280;36621;60.058;30.346;2022-08-03T00:40:00;101345.25;;;18.44;62.28
50650;BME280;36621;60.058;30.346;2022-08-03T00:47:31;101335.94;;;18.40;62.67
50650;BME280;36621;60.058;30.346;2022-08-03T00:55:04;101350.28;;;18.42;62.28
50650;BME280;36621;60.058;30.346;2022-08-03T01:02:37;101341.59;;;18.35;62.83
50650;BME280;36621;60.058;30.346;2022-08-03T01:10:12;101357.66;;;18.33;63.32
50650;BME280;36621;60.058;30.346;2022-08-03T01:17:46;101369.94;;;18.27;63.00
50650;BME280;36621;60.058;30.346;2022-08-03T01:25:26;101365.13;;;18.18;63.23
50650;BME280;36621;60.058;30.346;2022-08-03T01:33:01;101365.13;;;18.18;63.42
50650;BME280;36621;60.058;30.346;2022-08-03T01:40:33;101367.91;;;18.18;63.54
50650;BME280;36621;60.058;30.346;2022-08-03T01:48:07;101373.34;;;18.23;63.03
50650;BME280;36621;60.058;30.346;2022-08-03T01:55:42;101361.34;;;18.28;63.42
50650;BME280;36621;60.058;30.346;2022-08-03T02:03:15;101364.19;;;18.37;63.48
50650;BME280;36621;60.058;30.346;2022-08-03T02:10:48;101371.03;;;18.53;63.93
50650;BME280;36621;60.058;30.346;2022-08-03T02:18:21;101374.13;;;18.74;63.50
50650;BME280;36621;60.058;30.346;2022-08-03T02:25:56;101372.06;;;19.17;63.04
50650;BME280;36621;60.058;30.346;2022-08-03T02:33:31;101361.66;;;19.85;62.50
50650;BME280;36621;60.058;30.346;2022-08-03T02:41:04;101373.28;;;20.05;62.01
50650;BME280;36621;60.058;30.346;2022-08-03T02:48:38;101371.41;;;22.44;59.28
50650;BME280;36621;60.058;30.346;2022-08-03T02:56:12;101374.88;;;22.11;59.45
50650;BME280;36621;60.058;30.346;2022-08-03T03:03:45;101376.94;;;21.45;61.03
50650;BME280;36621;60.058;30.346;2022-08-03T03:11:17;101372.56;;;21.18;60.86
50650;BME280;36621;60.058;30.346;2022-08-03T03:18:50;101377.00;;;20.84;61.22
50650;BME280;36621;60.058;30.346;2022-08-03T03:26:22;101399.34;;;20.61;61.46
50650;BME280;36621;60.058;30.346;2022-08-03T03:33:55;101399.22;;;21.02;60.99
50650;BME280;36621;60.058;30.346;2022-08-03T03:41:28;101413.56;;;21.12;60.72
50650;BME280;36621;60.058;30.346;2022-08-03T03:49:00;101417.03;;;20.92;60.96
50650;BME280;36621;60.058;30.346;2022-08-03T03:56:32;101421.72;;;20.91;61.10
50650;BME280;36621;60.058;30.346;2022-08-03T04:04:05;101424.63;;;21.39;60.44
50650;BME280;36621;60.058;30.346;2022-08-03T04:11:52;101431.16;;;21.43;60.10
50650;BME280;36621;60.058;30.346;2022-08-03T04:19:25;101440.19;;;21.22;60.52
50650;BME280;36621;60.058;30.346;2022-08-03T04:27:00;101439.03;;;21.41;59.79
50650;BME280;36621;60.058;30.346;2022-08-03T04:34:33;101449.88;;;21.81;58.80
50650;BME280;36621;60.058;30.346;2022-08-03T04:42:06;101457.47;;;22.10;58.38
50650;BME280;36621;60.058;30.346;2022-08-03T04:49:40;101464.44;;;24.56;54.00
50650;BME280;36621;60.058;30.346;2022-08-03T04:57:12;101470.41;;;28.77;47.63
50650;BME280;36621;60.058;30.346;2022-08-03T05:04:44;101479.56;;;29.72;47.01
50650;BME280;36621;60.058;30.346;2022-08-03T05:12:16;101477.81;;;29.94;46.71
50650;BME280;36621;60.058;30.346;2022-08-03T05:19:49;101469.81;;;33.62;40.81
50650;BME280;36621;60.058;30.346;2022-08-03T05:27:20;101474.84;;;35.72;36.99
50650;BME280;36621;60.058;30.346;2022-08-03T05:34:53;101474.34;;;32.38;41.59
50650;BME280;36621;60.058;30.346;2022-08-03T05:42:25;101481.66;;;29.79;45.22
50650;BME280;36621;60.058;30.346;2022-08-03T05:49:57;101486.44;;;31.85;41.45
50650;BME280;36621;60.058;30.346;2022-08-03T05:57:29;101483.06;;;34.32;36.51
50650;BME280;36621;60.058;30.346;2022-08-03T06:05:02;101490.78;;;32.98;36.36
50650;BME280;36621;60.058;30.346;2022-08-03T06:12:37;101503.41;;;32.28;38.73
50650;BME280;36621;60.058;30.346;2022-08-03T06:20:14;101497.50;;;28.92;42.29
50650;BME280;36621;60.058;30.346;2022-08-03T06:27:47;101505.41;;;27.05;45.99
50650;BME280;36621;60.058;30.346;2022-08-03T06:35:20;101513.84;;;26.06;47.05
50650;BME280;36621;60.058;30.346;2022-08-03T06:42:52;101515.31;;;25.71;47.42
50650;BME280;36621;60.058;30.346;2022-08-03T06:50:24;101522.59;;;25.31;48.39
50650;BME280;36621;60.058;30.346;2022-08-03T06:57:56;101527.72;;;25.17;48.53
50650;BME280;36621;60.058;30.346;2022-08-03T07:05:28;101536.50;;;25.03;48.68
50650;BME280;36621;60.058;30.346;2022-08-03T07:13:03;101525.66;;;25.02;49.17
50650;BME280;36621;60.058;30.346;2022-08-03T07:20:35;101534.44;;;25.28;49.37
50650;BME280;36621;60.058;30.346;2022-08-03T07:28:07;101545.88;;;25.64;49.14
50650;BME280;36621;60.058;30.346;2022-08-03T07:35:39;101541.44;;;25.35;49.24
50650;BME280;36621;60.058;30.346;2022-08-03T07:43:11;101542.94;;;25.32;49.49
50650;BME280;36621;60.058;30.346;2022-08-03T07:50:44;101544.28;;;25.51;49.55
50650;BME280;36621;60.058;30.346;2022-08-03T07:58:16;101551.00;;;25.62;49.47
50650;BME280;36621;60.058;30.346;2022-08-03T08:05:48;101546.63;;;25.77;49.32
50650;BME280;36621;60.058;30.346;2022-08-03T08:13:20;101543.28;;;25.30;49.48
50650;BME280;36621;60.058;30.346;2022-08-03T08:20:53;101555.25;;;25.43;49.68
50650;BME280;36621;60.058;30.346;2022-08-03T08:28:24;101558.75;;;25.53;49.61
50650;BME280;36621;60.058;30.346;2022-08-03T08:35:57;101561.09;;;25.95;49.62
50650;BME280;36621;60.058;30.346;2022-08-03T08:43:32;101557.06;;;26.08;49.45
50650;BME280;36621;60.058;30.346;2022-08-03T08:51:16;101560.66;;;25.93;49.26
50650;BME280;36621;60.058;30.346;2022-08-03T08:58:50;101552.31;;;25.80;49.25
50650;BME280;36621;60.058;30.346;2022-08-03T09:06:23;101562.31;;;25.25;49.75
50650;BME280;36621;60.058;30.346;2022-08-03T09:13:55;101566.22;;;24.83;50.12
50650;BME280;36621;60.058;30.346;2022-08-03T09:21:27;101566.47;;;24.66;50.33
50650;BME280;36621;60.058;30.346;2022-08-03T09:29:01;101568.66;;;24.85;50.50
50650;BME280;36621;60.058;30.346;2022-08-03T09:36:34;101568.94;;;25.20;50.04
50650;BME280;36621;60.058;30.346;2022-08-03T09:44:07;101573.38;;;25.34;50.27
50650;BME280;36621;60.058;30.346;2022-08-03T09:51:40;101583.22;;;25.43;50.08
50650;BME280;36621;60.058;30.346;2022-08-03T09:59:15;101579.75;;;25.34;50.01
50650;BME280;36621;60.058;30.346;2022-08-03T10:07:04;101577.31;;;25.33;50.11
50650;BME280;36621;60.058;30.346;2022-08-03T10:14:37;101561.94;;;25.26;49.78
50650;BME280;36621;60.058;30.346;2022-08-03T10:22:11;101579.16;;;25.41;49.36
50650;BME280;36621;60.058;30.346;2022-08-03T10:29:44;101578.75;;;25.55;48.93
50650;BME280;36621;60.058;30.346;2022-08-03T10:37:17;101564.22;;;25.49;47.37
50650;BME280;36621;60.058;30.346;2022-08-03T10:44:50;101574.88;;;25.31;46.54
50650;BME280;36621;60.058;30.346;2022-08-03T10:52:24;101577.91;;;25.13;46.27
50650;BME280;36621;60.058;30.346;2022-08-03T10:59:57;101588.84;;;25.19;44.82
50650;BME280;36621;60.058;30.346;2022-08-03T11:07:35;101582.41;;;25.30;45.96
50650;BME280;36621;60.058;30.346;2022-08-03T11:15:07;101590.72;;;25.68;45.15
50650;BME280;36621;60.058;30.346;2022-08-03T11:22:49;101586.28;;;25.95;45.17
50650;BME280;36621;60.058;30.346;2022-08-03T11:30:22;101587.44;;;25.94;45.51
50650;BME280;36621;60.058;30.346;2022-08-03T11:38:09;101580.53;;;25.75;45.90
50650;BME280;36621;60.058;30.346;2022-08-03T11:45:48;101566.91;;;25.45;46.40
50650;BME280;36621;60.058;30.346;2022-08-03T11:53:27;101564.13;;;25.45;46.24
50650;BME280;36621;60.058;30.346;2022-08-03T12:01:02;101564.13;;;25.45;46.65
50650;BME280;36621;60.058;30.346;2022-08-03T12:08:35;101565.94;;;25.54;46.68
50650;BME280;36621;60.058;30.346;2022-08-03T12:16:06;101572.81;;;25.56;46.33
50650;BME280;36621;60.058;30.346;2022-08-03T12:23:40;101558.06;;;25.43;46.46
50650;BME280;36621;60.058;30.346;2022-08-03T12:31:11;101563.19;;;25.41;45.95
50650;BME280;36621;60.058;30.346;2022-08-03T12:38:44;101559.25;;;25.42;45.97
50650;BME280;36621;60.058;30.346;2022-08-03T12:46:28;101576.03;;;25.42;45.92
50650;BME280;36621;60.058;30.346;2022-08-03T12:54:02;101566.00;;;25.29;45.51
50650;BME280;36621;60.058;30.346;2022-08-03T13:01:36;101557.88;;;25.11;45.58
50650;BME280;36621;60.058;30.346;2022-08-03T13:09:09;101557.44;;;25.09;45.49
50650;BME280;36621;60.058;30.346;2022-08-03T13:16:41;101562.09;;;25.05;45.79
50650;BME280;36621;60.058;30.346;2022-08-03T13:24:13;101552.56;;;25.06;45.78
50650;BME280;36621;60.058;30.346;2022-08-03T13:31:45;101557.22;;;25.02;45.98
50650;BME280;36621;60.058;30.346;2022-08-03T13:39:17;101549.28;;;25.04;46.10
50650;BME280;36621;60.058;30.346;2022-08-03T13:46:50;101549.78;;;25.06;46.43
50650;BME280;36621;60.058;30.346;2022-08-03T13:54:22;101535.59;;;24.99;46.60
50650;BME280;36621;60.058;30.346;2022-08-03T14:01:54;101547.34;;;24.92;46.92
50650;BME280;36621;60.058;30.346;2022-08-03T14:09:27;101549.19;;;24.88;47.23
50650;BME280;36621;60.058;30.346;2022-08-03T14:16:59;101540.38;;;24.86;47.54
50650;BME280;36621;60.058;30.346;2022-08-03T14:24:31;101543.88;;;24.83;47.89
50650;BME280;36621;60.058;30.346;2022-08-03T14:32:03;101539.09;;;24.84;47.97
50650;BME280;36621;60.058;30.346;2022-08-03T14:39:35;101542.25;;;24.82;48.11
50650;BME280;36621;60.058;30.346;2022-08-03T14:47:08;101545.25;;;24.77;48.27
50650;BME280;36621;60.058;30.346;2022-08-03T14:54:40;101547.59;;;24.75;48.22
50650;BME280;36621;60.058;30.346;2022-08-03T15:02:12;101531.91;;;24.70;48.35
50650;BME280;36621;60.058;30.346;2022-08-03T15:09:45;101535.50;;;24.71;48.58
50650;BME280;36621;60.058;30.346;2022-08-03T15:17:17;101529.47;;;24.69;48.55
50650;BME280;36621;60.058;30.346;2022-08-03T15:24:49;101530.63;;;24.68;48.52
50650;BME280;36621;60.058;30.346;2022-08-03T15:32:21;101523.16;;;24.72;48.75
50650;BME280;36621;60.058;30.346;2022-08-03T15:39:53;101527.47;;;24.69;48.69
50650;BME280;36621;60.058;30.346;2022-08-03T15:47:25;101527.38;;;24.66;48.85
50650;BME280;36621;60.058;30.346;2022-08-03T15:54:58;101529.69;;;24.64;49.06
50650;BME280;36621;60.058;30.346;2022-08-03T16:02:29;101532.03;;;24.61;49.17
50650;BME280;36621;60.058;30.346;2022-08-03T16:10:03;101530.50;;;24.64;49.18
50650;BME280;36621;60.058;30.346;2022-08-03T16:17:35;101521.66;;;24.62;49.41
50650;BME280;36621;60.058;30.346;2022-08-03T16:25:08;101529.22;;;24.61;49.56
50650;BME280;36621;60.058;30.346;2022-08-03T16:32:39;101532.56;;;24.55;49.42
50650;BME280;36621;60.058;30.346;2022-08-03T16:40:12;101530.13;;;24.53;49.50
50650;BME280;36621;60.058;30.346;2022-08-03T16:47:44;101529.06;;;24.58;49.45
50650;BME280;36621;60.058;30.346;2022-08-03T16:55:16;101527.25;;;24.62;49.35
50650;BME280;36621;60.058;30.346;2022-08-03T17:02:48;101532.38;;;24.60;49.37
50650;BME280;36621;60.058;30.346;2022-08-03T17:10:23;101536.06;;;24.64;49.42
50650;BME280;36621;60.058;30.346;2022-08-03T17:17:56;101536.03;;;25.01;49.53
50650;BME280;36621;60.058;30.346;2022-08-03T17:25:32;101537.56;;;25.39;49.42
50650;BME280;36621;60.058;30.346;2022-08-03T17:33:04;101533.66;;;25.16;48.79
50650;BME280;36621;60.058;30.346;2022-08-03T17:40:37;101533.59;;;24.87;48.82
50650;BME280;36621;60.058;30.346;2022-08-03T17:48:09;101548.28;;;24.59;49.23
50650;BME280;36621;60.058;30.346;2022-08-03T17:55:43;101554.88;;;24.30;49.75
50650;BME280;36621;60.058;30.346;2022-08-03T18:03:20;101566.69;;;24.02;50.12
50650;BME280;36621;60.058;30.346;2022-08-03T18:10:54;101565.06;;;23.80;50.13
50650;BME280;36621;60.058;30.346;2022-08-03T18:18:29;101579.06;;;23.59;50.58
50650;BME280;36621;60.058;30.346;2022-08-03T18:26:03;101574.44;;;23.42;50.95
50650;BME280;36621;60.058;30.346;2022-08-03T18:33:37;101579.81;;;23.26;51.64
50650;BME280;36621;60.058;30.346;2022-08-03T18:41:10;101584.00;;;23.11;51.27
50650;BME280;36621;60.058;30.346;2022-08-03T18:48:45;101583.41;;;22.97;51.75
50650;BME280;36621;60.058;30.346;2022-08-03T18:56:25;101600.81;;;22.85;52.44
50650;BME280;36621;60.058;30.346;2022-08-03T19:04:00;101602.97;;;22.79;52.96
50650;BME280;36621;60.058;30.346;2022-08-03T19:11:36;101607.94;;;22.74;53.32
50650;BME280;36621;60.058;30.346;2022-08-03T19:19:09;101604.69;;;22.63;53.27
50650;BME280;36621;60.058;30.346;2022-08-03T19:26:43;101604.75;;;22.54;54.08
50650;BME280;36621;60.058;30.346;2022-08-03T19:34:17;101601.19;;;22.45;54.61
50650;BME280;36621;60.058;30.346;2022-08-03T19:41:50;101602.03;;;22.36;54.95
50650;BME280;36621;60.058;30.346;2022-08-03T19:49:23;101604.97;;;22.23;55.09
50650;BME280;36621;60.058;30.346;2022-08-03T19:56:57;101613.84;;;22.16;55.29
50650;BME280;36621;60.058;30.346;2022-08-03T20:04:30;101601.09;;;22.06;55.50
50650;BME280;36621;60.058;30.346;2022-08-03T20:12:03;101627.09;;;22.01;54.68
50650;BME280;36621;60.058;30.346;2022-08-03T20:19:35;101624.16;;;21.89;55.16
50650;BME280;36621;60.058;30.346;2022-08-03T20:27:08;101622.06;;;21.77;55.99
50650;BME280;36621;60.058;30.346;2022-08-03T20:34:41;101632.84;;;21.70;56.99
50650;BME280;36621;60.058;30.346;2022-08-03T20:42:14;101627.63;;;21.60;55.36
50650;BME280;36621;60.058;30.346;2022-08-03T20:49:45;101625.44;;;21.48;56.81
50650;BME280;36621;60.058;30.346;2022-08-03T20:57:20;101637.84;;;21.42;56.84
50650;BME280;36621;60.058;30.346;2022-08-03T21:04:52;101646.03;;;21.38;58.52
50650;BME280;36621;60.058;30.346;2022-08-03T21:12:26;101639.28;;;21.30;57.68
50650;BME280;36621;60.058;30.346;2022-08-03T21:20:02;101651.88;;;21.19;58.33
50650;BME280;36621;60.058;30.346;2022-08-03T21:27:37;101646.44;;;21.14;59.65
50650;BME280;36621;60.058;30.346;2022-08-03T21:35:09;101645.47;;;21.10;59.58
50650;BME280;36621;60.058;30.346;2022-08-03T21:42:42;101660.50;;;21.09;59.44
50650;BME280;36621;60.058;30.346;2022-08-03T21:50:14;101665.88;;;21.14;59.27
50650;BME280;36621;60.058;30.346;2022-08-03T21:57:52;101665.25;;;21.17;59.70
50650;BME280;36621;60.058;30.346;2022-08-03T22:05:24;101661.34;;;21.18;60.33
50650;BME280;36621;60.058;30.346;2022-08-03T22:12:57;101655.94;;;21.22;60.29
50650;BME280;36621;60.058;30.346;2022-08-03T22:20:29;101663.78;;;21.20;60.25
50650;BME280;36621;60.058;30.346;2022-08-03T22:28:02;101658.56;;;21.18;60.44
50650;BME280;36621;60.058;30.346;2022-08-03T22:35:36;101668.34;;;21.15;60.40
50650;BME280;36621;60.058;30.346;2022-08-03T22:43:10;101663.28;;;21.09;58.94
50650;BME280;36621;60.058;30.346;2022-08-03T22:50:42;101664.53;;;21.03;60.28
50650;BME280;36621;60.058;30.346;2022-08-03T22:58:15;101670.59;;;20.96;59.99
50650;BME280;36621;60.058;30.346;2022-08-03T23:05:47;101671.03;;;20.89;59.97
50650;BME280;36621;60.058;30.346;2022-08-03T23:13:22;101674.94;;;20.88;60.82
50650;BME280;36621;60.058;30.346;2022-08-03T23:20:56;101666.28;;;20.90;61.11
50650;BME280;36621;60.058;30.346;2022-08-03T23:28:29;101666.47;;;20.93;61.15
50650;BME280;36621;60.058;30.346;2022-08-03T23:36:02;101668.13;;;20.94;60.85
50650;BME280;36621;60.058;30.346;2022-08-03T23:43:37;101670.22;;;20.89;60.67
50650;BME280;36621;60.058;30.346;2022-08-03T23:51:09;101662.03;;;20.84;61.18
50650;BME280;36621;60.058;30.346;2022-08-03T23:58:48;101660.22;;;20.79;61.09
